Time;durP1;ratioP1;P1;durP2;ratioP2;P2;SDS_P1;SDS_P2;PMS_P1;PMS_P2;Temp;Humidity;BMP_temperature;BMP_pressure;BME280_temperature;BME280_humidity;BME280_pressure;Samples;Min_cycle;Max_cycle;Signal;HPM_P1;HPM_P2
2024/01/04 00:01:58;;;;;;;12.50;4.72;;;;;;;6.92;100.00;99292.34;5028977;28;20033;-64
2024/01/04 00:04:24;;;;;;;10.15;4.22;;;;;;;6.93;100.00;99299.22;5028815;28;20512;-63
2024/01/04 00:06:49;;;;;;;11.10;4.40;;;;;;;6.94;100.00;99295.78;5028761;28;20366;-64
2024/01/04 00:09:15;;;;;;;9.00;4.72;;;;;;;6.96;100.00;99301.00;5040023;28;20034;-64
2024/01/04 00:11:40;;;;;;;11.73;5.07;;;;;;;6.96;100.00;99307.00;5029068;28;20033;-64
2024/01/04 00:14:07;;;;;;;10.80;4.00;;;;;;;6.95;100.00;99310.44;5028976;28;20105;-64
2024/01/04 00:16:33;;;;;;;5.55;3.97;;;;;;;6.98;100.00;99327.66;5028970;28;20033;-64
2024/01/04 00:18:58;;;;;;;8.77;3.85;;;;;;;6.97;100.00;99331.94;5028461;28;20521;-64
2024/01/04 00:21:23;;;;;;;8.38;3.90;;;;;;;6.99;100.00;99338.81;5028769;28;20099;-63
2024/01/04 00:23:49;;;;;;;8.90;4.07;;;;;;;6.97;100.00;99339.66;5028218;28;20033;-64
2024/01/04 00:26:14;;;;;;;9.95;3.63;;;;;;;6.98;100.00;99345.66;5029096;28;20072;-64
2024/01/04 00:28:39;;;;;;;7.82;4.05;;;;;;;6.96;100.00;99361.09;5028267;28;20025;-63
2024/01/04 00:31:04;;;;;;;8.27;4.13;;;;;;;6.95;100.00;99359.38;5033435;28;20033;-64
2024/01/04 00:33:30;;;;;;;8.20;3.45;;;;;;;6.97;100.00;99370.59;5026921;28;20104;-64
2024/01/04 00:35:55;;;;;;;6.82;3.67;;;;;;;6.97;100.00;99372.28;5028764;28;20417;-64
2024/01/04 00:38:21;;;;;;;6.47;3.05;;;;;;;6.96;100.00;99381.69;5027899;28;20064;-64
2024/01/04 00:40:46;;;;;;;10.18;3.00;;;;;;;6.95;100.00;99386.81;5028351;28;20075;-63
2024/01/04 00:43:11;;;;;;;7.22;3.22;;;;;;;6.95;100.00;99390.28;5028440;28;20022;-64
2024/01/04 00:45:36;;;;;;;5.68;2.55;;;;;;;6.94;100.00;99396.25;5027927;28;20052;-63
2024/01/04 00:48:02;;;;;;;7.82;3.15;;;;;;;6.93;100.00;99397.09;5028199;28;20057;-63
2024/01/04 00:50:28;;;;;;;6.90;2.25;;;;;;;6.92;100.00;99400.50;5027571;28;20326;-63
2024/01/04 00:52:53;;;;;;;5.57;2.10;;;;;;;6.92;100.00;99408.25;5028356;28;20027;-63
2024/01/04 00:55:19;;;;;;;6.13;2.30;;;;;;;6.92;100.00;99417.66;5027840;28;20021;-64
2024/01/04 00:57:44;;;;;;;10.65;2.58;;;;;;;6.91;100.00;99414.22;5028378;28;20529;-63
2024/01/04 01:00:10;;;;;;;10.13;2.38;;;;;;;6.93;100.00;99427.13;5027985;28;20032;-64
2024/01/04 01:02:35;;;;;;;5.97;2.20;;;;;;;6.94;100.00;99437.44;5027885;28;20103;-63
2024/01/04 01:05:01;;;;;;;11.05;2.25;;;;;;;6.93;100.00;99434.84;5027874;28;20028;-64
2024/01/04 01:07:26;;;;;;;7.32;1.80;;;;;;;6.92;100.00;99443.41;5027899;28;20095;-64
2024/01/04 01:09:52;;;;;;;8.77;2.17;;;;;;;6.90;100.00;99456.25;5028025;28;20104;-64
2024/01/04 01:12:17;;;;;;;5.65;1.98;;;;;;;6.90;100.00;99458.84;5027830;28;20482;-64
2024/01/04 01:14:42;;;;;;;4.60;1.33;;;;;;;6.90;100.00;99453.69;5027188;28;20140;-64
2024/01/04 01:17:08;;;;;;;4.32;1.50;;;;;;;6.90;100.00;99466.56;5027715;28;20453;-64
2024/01/04 01:19:33;;;;;;;7.22;1.60;;;;;;;6.90;100.00;99469.13;5027161;28;20489;-64
2024/01/04 01:21:58;;;;;;;5.68;1.67;;;;;;;6.90;100.00;99478.56;5027309;28;20037;-63
2024/01/04 01:24:24;;;;;;;6.25;2.15;;;;;;;6.90;100.00;99476.88;5026890;28;20160;-63
2024/01/04 01:26:49;;;;;;;5.57;1.90;;;;;;;6.90;100.00;99470.84;5017389;28;20474;-63
2024/01/04 01:29:14;;;;;;;3.35;1.83;;;;;;;6.91;100.00;99472.56;5024739;28;20025;-63
2024/01/04 01:31:41;;;;;;;5.03;2.03;;;;;;;6.90;100.00;99494.91;5027290;28;20029;-64
2024/01/04 01:34:07;;;;;;;9.43;2.55;;;;;;;6.90;100.00;99484.59;5026952;28;20029;-63
2024/01/04 01:36:32;;;;;;;7.88;2.22;;;;;;;6.90;100.00;99489.75;5027191;28;20021;-64
2024/01/04 01:38:57;;;;;;;7.75;2.42;;;;;;;6.90;100.00;99500.03;5026890;28;20037;-64
2024/01/04 01:41:22;;;;;;;7.18;2.42;;;;;;;6.91;100.00;99500.88;5027290;28;20036;-64
2024/01/04 01:43:48;;;;;;;4.65;2.45;;;;;;;6.90;100.00;99514.63;5026430;28;20060;-63
2024/01/04 01:46:13;;;;;;;10.20;2.85;;;;;;;6.90;100.00;99515.50;5026908;28;20436;-64
2024/01/04 01:48:38;;;;;;;9.85;2.83;;;;;;;6.93;100.00;99523.28;5020338;28;20049;-64
2024/01/04 01:51:04;;;;;;;8.20;2.60;;;;;;;6.92;100.00;99531.88;5039481;28;20500;-63
2024/01/04 01:53:29;;;;;;;6.30;2.70;;;;;;;6.92;100.00;99531.88;5026957;28;20013;-63
2024/01/04 01:55:55;;;;;;;10.13;3.08;;;;;;;6.92;100.00;99539.59;5024391;28;20033;-63
2024/01/04 01:58:21;;;;;;;4.63;2.40;;;;;;;6.92;100.00;99542.16;5016690;28;20268;-63
2024/01/04 02:00:47;;;;;;;8.88;3.58;;;;;;;6.91;100.00;99547.25;5026629;28;20424;-64
2024/01/04 02:03:12;;;;;;;10.15;3.08;;;;;;;6.90;100.00;99551.56;5027330;28;20504;-64
2024/01/04 02:05:38;;;;;;;4.90;2.90;;;;;;;6.92;100.00;99549.00;5034844;28;20025;-63
2024/01/04 02:08:03;;;;;;;9.57;3.13;;;;;;;6.92;100.00;99555.03;5026976;28;20036;-63
2024/01/04 02:10:29;;;;;;;6.68;2.53;;;;;;;6.92;100.00;99554.16;5026471;28;20194;-64
2024/01/04 02:12:54;;;;;;;7.40;2.80;;;;;;;6.93;100.00;99561.03;5027246;28;20108;-63
2024/01/04 02:15:19;;;;;;;7.75;2.88;;;;;;;6.90;100.00;99556.69;5026050;28;20028;-64
2024/01/04 02:17:45;;;;;;;7.55;3.17;;;;;;;6.89;100.00;99561.81;5021388;28;20381;-63
2024/01/04 02:20:10;;;;;;;11.23;3.15;;;;;;;6.86;100.00;99578.03;5034568;28;20477;-63
2024/01/04 02:22:39;;;;;;;5.10;3.30;;;;;;;6.85;100.00;99584.88;5026064;28;20072;-64
2024/01/04 02:25:04;;;;;;;10.95;3.05;;;;;;;6.85;100.00;99589.19;5026470;28;20037;-63
2024/01/04 02:27:30;;;;;;;9.00;3.20;;;;;;;6.84;100.00;99593.47;5026380;28;20014;-63
2024/01/04 02:29:55;;;;;;;6.40;2.47;;;;;;;6.83;100.00;99598.56;5026531;28;20121;-63
2024/01/04 02:32:20;;;;;;;6.75;2.67;;;;;;;6.82;100.00;99597.69;5026507;28;20025;-63
2024/01/04 02:34:45;;;;;;;7.18;2.75;;;;;;;6.83;100.00;99598.56;5019873;28;20214;-63
2024/01/04 02:37:11;;;;;;;9.38;2.80;;;;;;;6.84;100.00;99602.88;5023123;28;20021;-64
2024/01/04 02:39:36;;;;;;;8.40;2.95;;;;;;;6.86;100.00;99593.50;5009497;28;20059;-64
2024/01/04 02:42:01;;;;;;;8.82;3.53;;;;;;;6.84;100.00;99601.19;5019528;28;20025;-64
2024/01/04 02:44:26;;;;;;;6.95;3.35;;;;;;;6.85;100.00;99599.50;5026869;28;20053;-63
2024/01/04 02:46:52;;;;;;;10.68;3.25;;;;;;;6.85;100.00;99609.78;5025140;28;20056;-63
2024/01/04 02:49:17;;;;;;;6.35;3.08;;;;;;;6.85;100.00;99608.06;5020347;28;20031;-64
2024/01/04 02:51:42;;;;;;;10.93;2.75;;;;;;;6.88;100.00;99607.28;5026272;28;20022;-63
2024/01/04 02:54:08;;;;;;;12.00;3.53;;;;;;;6.89;100.00;99616.75;5018752;28;20405;-64
2024/01/04 02:56:33;;;;;;;9.13;2.90;;;;;;;6.87;100.00;99613.28;5025905;28;20032;-63
2024/01/04 02:58:58;;;;;;;8.50;2.83;;;;;;;6.88;100.00;99615.03;5026026;28;20380;-63
2024/01/04 03:01:24;;;;;;;9.75;3.63;;;;;;;6.86;100.00;99621.81;5025306;28;20112;-63
2024/01/04 03:03:55;;;;;;;8.68;3.65;;;;;;;6.85;100.00;99625.25;5026030;28;20044;-63
2024/01/04 03:06:24;;;;;;;7.10;3.38;;;;;;;6.86;100.00;99626.97;5014635;28;20021;-64
2024/01/04 03:08:50;;;;;;;6.22;2.67;;;;;;;6.83;100.00;99632.06;5025374;28;20029;-62
2024/01/04 03:11:15;;;;;;;9.77;3.50;;;;;;;6.84;100.00;99631.22;5025963;28;20021;-63
2024/01/04 03:13:41;;;;;;;4.63;2.47;;;;;;;6.81;100.00;99641.44;5025352;28;20056;-63
2024/01/04 03:16:06;;;;;;;5.05;2.22;;;;;;;6.80;100.00;99647.41;5026009;28;20057;-63
2024/01/04 03:18:31;;;;;;;6.38;2.10;;;;;;;6.79;100.00;99643.97;5027289;28;20029;-63
2024/01/04 03:20:56;;;;;;;4.72;2.53;;;;;;;6.78;100.00;99649.94;5037866;28;20025;-64
2024/01/04 03:23:21;;;;;;;2.63;2.20;;;;;;;6.77;100.00;99657.63;5025665;28;20443;-64
2024/01/04 03:25:47;;;;;;;7.07;2.20;;;;;;;6.76;100.00;99661.03;5025994;28;20018;-64
2024/01/04 03:28:12;;;;;;;4.75;2.42;;;;;;;6.75;100.00;99667.88;5027062;28;20053;-64
2024/01/04 03:30:37;;;;;;;3.97;2.60;;;;;;;6.76;100.00;99668.75;5029293;28;20025;-64
2024/01/04 03:33:03;;;;;;;7.05;2.65;;;;;;;6.75;100.00;99674.72;5029319;28;20026;-63
2024/01/04 03:35:28;;;;;;;4.13;2.10;;;;;;;6.76;100.00;99679.94;5029233;28;20028;-63
2024/01/04 03:37:53;;;;;;;5.13;2.00;;;;;;;6.75;100.00;99685.00;5029456;28;20056;-63
2024/01/04 03:40:18;;;;;;;4.05;2.47;;;;;;;6.75;100.00;99678.16;5029492;28;20021;-63
2024/01/04 03:42:44;;;;;;;4.95;2.60;;;;;;;6.73;100.00;99684.97;5029730;28;20482;-63
2024/01/04 03:45:09;;;;;;;5.03;2.20;;;;;;;6.71;100.00;99687.50;5015518;28;20544;-63
2024/01/04 03:47:35;;;;;;;5.80;2.20;;;;;;;6.72;100.00;99685.81;5022349;28;20050;-63
2024/01/04 03:50:00;;;;;;;4.68;2.60;;;;;;;6.72;100.00;99696.13;5029701;28;20017;-63
2024/01/04 03:52:25;;;;;;;6.50;2.05;;;;;;;6.72;100.00;99696.13;5028172;28;20056;-64
2024/01/04 03:54:51;;;;;;;4.70;2.30;;;;;;;6.70;100.00;99698.66;5017778;28;20026;-63
2024/01/04 03:57:16;;;;;;;5.03;2.70;;;;;;;6.68;100.00;99690.00;5023435;28;20473;-64
2024/01/04 03:59:41;;;;;;;7.75;3.13;;;;;;;6.67;100.00;99695.09;5029068;28;20100;-63
2024/01/04 04:02:06;;;;;;;6.70;2.35;;;;;;;6.66;100.00;99701.94;5021136;28;20021;-63
2024/01/04 04:04:32;;;;;;;5.78;3.45;;;;;;;6.63;100.00;99701.88;5029052;28;20033;-63
2024/01/04 04:06:57;;;;;;;5.75;3.55;;;;;;;6.63;100.00;99707.00;5027365;28;20025;-63
2024/01/04 04:09:23;;;;;;;6.70;3.08;;;;;;;6.63;100.00;99703.56;5027391;28;20100;-63
2024/01/04 04:11:49;;;;;;;5.38;3.13;;;;;;;6.63;100.00;99707.00;5025378;28;20025;-63
2024/01/04 04:14:15;;;;;;;7.25;3.70;;;;;;;6.61;100.00;99713.81;5038255;28;20025;-63
2024/01/04 04:16:40;;;;;;;8.23;4.07;;;;;;;6.62;100.00;99719.84;5026872;28;20030;-63
2024/01/04 04:19:06;;;;;;;8.63;3.70;;;;;;;6.62;100.00;99722.41;5027760;28;20036;-63
2024/01/04 04:21:31;;;;;;;9.18;4.07;;;;;;;6.63;100.00;99722.47;5027745;28;20029;-64
2024/01/04 04:23:56;;;;;;;6.88;4.43;;;;;;;6.63;100.00;99716.44;5031315;28;20028;-64
2024/01/04 04:26:22;;;;;;;8.13;5.25;;;;;;;6.65;100.00;99718.25;5028894;28;20018;-63
2024/01/04 04:28:51;;;;;;;10.38;4.80;;;;;;;6.67;100.00;99724.31;5025050;28;20444;-63
2024/01/04 04:31:18;;;;;;;12.40;5.10;;;;;;;6.67;100.00;99734.59;5028466;28;20493;-64
2024/01/04 04:33:45;;;;;;;8.68;4.80;;;;;;;6.67;100.00;99744.91;5027830;28;21023;-63
2024/01/04 04:36:11;;;;;;;8.63;5.38;;;;;;;6.70;100.00;99749.25;5028976;28;20029;-64
2024/01/04 04:38:36;;;;;;;10.18;6.03;;;;;;;6.69;100.00;99750.94;5027938;28;20076;-64
2024/01/04 04:41:06;;;;;;;11.30;5.60;;;;;;;6.72;100.00;99747.63;5028294;28;20033;-63
2024/01/04 04:43:32;;;;;;;10.70;6.30;;;;;;;6.72;100.00;99750.19;5027882;28;20036;-63
2024/01/04 04:45:58;;;;;;;10.73;5.65;;;;;;;6.72;100.00;99757.91;5028566;28;20017;-63
2024/01/04 04:48:24;;;;;;;11.15;6.15;;;;;;;6.71;100.00;99762.19;5027723;28;20049;-63
2024/01/04 04:50:50;;;;;;;10.18;7.20;;;;;;;6.70;100.00;99768.16;5028174;28;20030;-63
2024/01/04 04:53:16;;;;;;;10.55;6.63;;;;;;;6.71;100.00;99762.19;5028224;28;20112;-63
2024/01/04 04:55:41;;;;;;;8.10;6.05;;;;;;;6.71;100.00;99762.19;5028142;28;20167;-63
2024/01/04 04:58:06;;;;;;;11.85;7.20;;;;;;;6.70;100.00;99760.44;5026825;28;20130;-64
2024/01/04 05:00:31;;;;;;;11.02;5.95;;;;;;;6.68;100.00;99769.81;5021924;28;20033;-64
2024/01/04 05:02:57;;;;;;;9.07;5.43;;;;;;;6.67;100.00;99774.91;5025207;28;20034;-64
2024/01/04 05:05:22;;;;;;;8.43;5.55;;;;;;;6.66;100.00;99771.47;5030727;28;20018;-63
2024/01/04 05:07:47;;;;;;;10.93;5.53;;;;;;;6.66;100.00;99781.75;5036043;28;20041;-64
2024/01/04 05:10:13;;;;;;;7.80;5.10;;;;;;;6.64;100.00;99775.69;5026932;28;20049;-64
2024/01/04 05:12:38;;;;;;;7.70;5.10;;;;;;;6.63;100.00;99768.81;5028185;28;20474;-64
2024/01/04 05:15:04;;;;;;;9.55;5.43;;;;;;;6.62;100.00;99781.63;5027818;28;20017;-63
2024/01/04 05:17:29;;;;;;;8.85;5.40;;;;;;;6.61;100.00;99773.03;5028028;28;20025;-64
2024/01/04 05:19:54;;;;;;;10.35;5.88;;;;;;;6.61;100.00;99791.03;5027983;28;20124;-64
2024/01/04 05:22:20;;;;;;;14.18;6.57;;;;;;;6.60;100.00;99789.31;5028108;28;20017;-63
2024/01/04 05:24:46;;;;;;;15.70;7.40;;;;;;;6.60;100.00;99790.16;5026180;28;20067;-63
2024/01/04 05:27:11;;;;;;;11.27;6.38;;;;;;;6.60;100.00;99795.31;5039777;28;20021;-63
2024/01/04 05:29:36;;;;;;;10.85;6.15;;;;;;;6.61;100.00;99801.34;5027861;28;20029;-63
2024/01/04 05:32:02;;;;;;;11.73;6.72;;;;;;;6.60;100.00;99799.59;5026921;28;20477;-63
2024/01/04 05:34:29;;;;;;;10.73;6.68;;;;;;;6.60;100.00;99804.75;5026650;28;20037;-63
2024/01/04 05:36:54;;;;;;;10.90;7.63;;;;;;;6.61;100.00;99809.06;5027556;28;20031;-63
2024/01/04 05:39:19;;;;;;;10.45;6.53;;;;;;;6.62;100.00;99810.81;5026847;28;20351;-63
2024/01/04 05:41:45;;;;;;;12.75;7.13;;;;;;;6.63;100.00;99819.41;5027058;28;20037;-64
2024/01/04 05:44:10;;;;;;;13.57;7.03;;;;;;;6.64;100.00;99822.03;5026976;28;20017;-63
2024/01/04 05:46:35;;;;;;;11.57;7.75;;;;;;;6.62;100.00;99823.69;5027106;28;20052;-63
2024/01/04 05:49:01;;;;;;;11.05;7.38;;;;;;;6.62;100.00;99827.97;5026841;28;20104;-64
2024/01/04 05:51:26;;;;;;;11.23;6.90;;;;;;;6.61;100.00;99832.25;5026583;28;20060;-64
2024/01/04 05:53:51;;;;;;;7.57;6.43;;;;;;;6.60;100.00;99835.66;5026796;28;20385;-63
2024/01/04 05:56:17;;;;;;;9.07;5.68;;;;;;;6.60;100.00;99838.22;5027127;28;20112;-63
2024/01/04 05:58:42;;;;;;;9.43;5.05;;;;;;;6.58;100.00;99847.59;5029216;28;20036;-63
2024/01/04 06:01:08;;;;;;;5.95;4.10;;;;;;;6.58;100.00;99850.16;5024070;28;20030;-64
2024/01/04 06:03:33;;;;;;;6.97;4.40;;;;;;;6.58;100.00;99852.75;5026904;28;20036;-63
2024/01/04 06:05:58;;;;;;;7.47;3.92;;;;;;;6.56;100.00;99856.97;5026756;28;20029;-63
2024/01/04 06:08:24;;;;;;;6.15;3.47;;;;;;;6.54;100.00;99861.19;5026735;28;20196;-64
2024/01/04 06:10:49;;;;;;;6.70;3.70;;;;;;;6.55;100.00;99862.94;5026707;28;20394;-63
2024/01/04 06:13:14;;;;;;;9.20;3.65;;;;;;;6.54;100.00;99866.31;5025864;28;20079;-63
2024/01/04 06:15:39;;;;;;;5.68;3.13;;;;;;;6.51;100.00;99868.81;5036859;28;20040;-63
2024/01/04 06:18:05;;;;;;;3.85;2.97;;;;;;;6.52;100.00;99873.13;5019122;28;20508;-64
2024/01/04 06:20:30;;;;;;;4.00;2.47;;;;;;;6.51;100.00;99879.09;5020267;28;20130;-64
2024/01/04 06:22:55;;;;;;;4.78;3.03;;;;;;;6.51;100.00;99881.69;5030096;28;20036;-62
2024/01/04 06:25:20;;;;;;;6.80;2.92;;;;;;;6.53;100.00;99885.19;5032637;28;20033;-64
2024/01/04 06:27:46;;;;;;;6.70;3.30;;;;;;;6.48;100.00;99883.31;5026077;28;20086;-63
2024/01/04 06:30:11;;;;;;;5.90;3.35;;;;;;;6.46;100.00;99884.97;5026146;28;20055;-63
2024/01/04 06:32:36;;;;;;;4.72;3.10;;;;;;;6.48;100.00;99896.19;5026046;28;20083;-63
2024/01/04 06:35:02;;;;;;;5.55;3.03;;;;;;;6.48;100.00;99893.63;5036559;28;20025;-63
2024/01/04 06:37:28;;;;;;;7.75;3.28;;;;;;;6.47;100.00;99889.31;5025682;28;20032;-63
2024/01/04 06:39:53;;;;;;;6.72;3.13;;;;;;;6.47;100.00;99896.16;5026366;28;20128;-64
2024/01/04 06:42:19;;;;;;;4.95;2.83;;;;;;;6.46;100.00;99892.69;5026288;28;20030;-64
2024/01/04 06:44:46;;;;;;;5.30;3.30;;;;;;;6.47;100.00;99899.59;5026439;28;20103;-63
2024/01/04 06:47:12;;;;;;;3.95;2.72;;;;;;;6.48;100.00;99905.59;5025284;28;20049;-64
2024/01/04 06:49:37;;;;;;;6.40;3.55;;;;;;;6.45;100.00;99908.97;5026593;28;20052;-63
2024/01/04 06:52:03;;;;;;;5.65;3.67;;;;;;;6.46;100.00;99915.84;5026861;28;20468;-63
2024/01/04 06:54:28;;;;;;;7.70;3.80;;;;;;;6.46;100.00;99921.00;5025996;28;20082;-63
2024/01/04 06:56:53;;;;;;;5.78;4.07;;;;;;;6.47;100.00;99915.03;5025570;28;20030;-63
2024/01/04 06:59:19;;;;;;;7.47;4.35;;;;;;;6.47;100.00;99924.47;5026214;28;20466;-63
2024/01/04 07:01:44;;;;;;;5.10;4.05;;;;;;;6.45;100.00;99929.56;5026538;28;20033;-64
2024/01/04 07:04:09;;;;;;;8.32;4.18;;;;;;;6.45;100.00;99934.72;5028288;28;20481;-63
2024/01/04 07:06:34;;;;;;;8.15;4.43;;;;;;;6.42;100.00;99929.44;5029840;28;20090;-63
2024/01/04 07:09:00;;;;;;;9.65;4.68;;;;;;;6.40;100.00;99938.81;5038201;28;20500;-63
2024/01/04 07:11:29;;;;;;;8.02;4.68;;;;;;;6.42;100.00;99944.88;5025501;28;20083;-64
2024/01/04 07:13:54;;;;;;;10.55;4.32;;;;;;;6.43;100.00;99946.63;5028645;28;20062;-63
2024/01/04 07:16:19;;;;;;;10.70;4.35;;;;;;;6.41;100.00;99948.28;5030261;28;20034;-63
2024/01/04 07:18:44;;;;;;;10.80;4.40;;;;;;;6.42;100.00;99949.16;5028120;28;20033;-64
2024/01/04 07:21:10;;;;;;;9.50;4.63;;;;;;;6.45;100.00;99955.28;5040394;28;20068;-63
2024/01/04 07:23:35;;;;;;;8.43;4.53;;;;;;;6.46;100.00;99951.00;5027900;28;20041;-64
2024/01/04 07:26:00;;;;;;;7.18;4.43;;;;;;;6.45;100.00;99965.59;5028937;28;20037;-63
2024/01/04 07:28:26;;;;;;;6.38;4.47;;;;;;;6.43;100.00;99971.50;5028883;28;20420;-63
2024/01/04 07:30:51;;;;;;;12.70;5.03;;;;;;;6.40;100.00;99969.72;5029736;28;20083;-63
2024/01/04 07:33:17;;;;;;;8.35;5.07;;;;;;;6.40;100.00;99976.53;5027706;28;20033;-64
2024/01/04 07:35:42;;;;;;;8.88;4.97;;;;;;;6.41;100.00;99976.59;5028431;28;20212;-63
2024/01/04 07:38:07;;;;;;;9.90;5.35;;;;;;;6.40;100.00;99976.53;5027141;28;20076;-63
2024/01/04 07:40:32;;;;;;;11.20;4.95;;;;;;;6.40;100.00;99977.44;5025696;28;20092;-63
2024/01/04 07:42:58;;;;;;;8.52;5.50;;;;;;;6.41;100.00;99980.84;5027499;28;20061;-63
2024/01/04 07:45:23;;;;;;;6.82;5.10;;;;;;;6.42;100.00;99978.31;5028328;28;20026;-63
2024/01/04 07:47:48;;;;;;;9.57;5.68;;;;;;;6.42;100.00;99980.06;5028853;28;20147;-64
2024/01/04 07:50:14;;;;;;;14.30;6.00;;;;;;;6.39;100.00;99991.09;5028311;28;20025;-62
2024/01/04 07:52:39;;;;;;;15.50;6.10;;;;;;;6.40;100.00;99999.72;5028816;28;20046;-62
2024/01/04 07:55:05;;;;;;;10.60;6.30;;;;;;;6.39;100.00;100006.53;5028552;28;20515;-62
2024/01/04 07:57:30;;;;;;;9.30;6.38;;;;;;;6.37;100.00;100003.03;5029391;28;20436;-63
2024/01/04 07:59:56;;;;;;;11.43;7.07;;;;;;;6.35;100.00;100008.13;5029977;28;20025;-62
2024/01/04 08:02:21;;;;;;;11.00;6.82;;;;;;;6.36;100.00;100007.31;5029303;28;20160;-62
2024/01/04 08:04:47;;;;;;;12.98;8.10;;;;;;;6.36;100.00;100011.59;5012297;28;20037;-62
2024/01/04 08:07:12;;;;;;;14.82;7.30;;;;;;;6.36;100.00;100022.78;5030659;28;20536;-62
2024/01/04 08:09:37;;;;;;;11.13;7.15;;;;;;;6.37;100.00;100015.91;5028856;28;20172;-62
2024/01/04 08:12:03;;;;;;;12.27;8.05;;;;;;;6.36;100.00;100022.78;5029401;28;20456;-63
2024/01/04 08:14:30;;;;;;;13.50;7.53;;;;;;;6.37;100.00;100023.63;5025747;28;20034;-62
2024/01/04 08:16:56;;;;;;;9.98;7.65;;;;;;;6.36;100.00;100021.88;5027882;28;20040;-62
2024/01/04 08:19:21;;;;;;;12.15;7.72;;;;;;;6.39;100.00;100026.25;5026748;28;20021;-62
2024/01/04 08:21:46;;;;;;;9.40;7.22;;;;;;;6.39;100.00;100029.69;5023002;28;20033;-62
2024/01/04 08:24:12;;;;;;;11.27;6.55;;;;;;;6.38;100.00;100034.81;5022540;28;20116;-61
2024/01/04 08:26:43;;;;;;;13.60;7.22;;;;;;;6.39;100.00;100032.28;5024088;28;20037;-62
2024/01/04 08:29:09;;;;;;;11.07;6.40;;;;;;;6.43;100.00;100029.00;5025391;28;20508;-63
2024/01/04 08:31:34;;;;;;;9.88;5.75;;;;;;;6.46;100.00;100035.94;5042541;28;20083;-62
2024/01/04 08:33:59;;;;;;;9.05;4.80;;;;;;;6.42;100.00;100032.38;5031442;28;20071;-63
2024/01/04 08:36:25;;;;;;;8.48;4.55;;;;;;;6.46;100.00;100033.38;5023719;28;20045;-62
2024/01/04 08:38:50;;;;;;;6.68;4.20;;;;;;;6.44;100.00;100029.88;5025847;28;20142;-62
2024/01/04 08:41:15;;;;;;;10.73;3.78;;;;;;;6.47;100.00;100041.16;5027197;28;20030;-62
2024/01/04 08:43:41;;;;;;;6.43;3.28;;;;;;;6.46;100.00;100033.38;5027999;28;20612;-62
2024/01/04 08:46:06;;;;;;;8.13;3.20;;;;;;;6.49;100.00;100039.50;5038844;28;20020;-62
2024/01/04 08:48:31;;;;;;;9.77;3.13;;;;;;;6.48;100.00;100042.03;5026753;28;20056;-62
2024/01/04 08:50:57;;;;;;;7.15;3.33;;;;;;;6.48;100.00;100045.50;5034225;28;20392;-62
2024/01/04 08:53:22;;;;;;;7.60;2.92;;;;;;;6.51;100.00;100051.56;5034006;28;20025;-63
2024/01/04 08:55:48;;;;;;;5.88;2.88;;;;;;;6.47;100.00;100050.59;5027896;28;20091;-62
2024/01/04 08:58:14;;;;;;;8.50;2.70;;;;;;;6.48;100.00;100048.06;5035035;28;20099;-62
2024/01/04 09:00:40;;;;;;;3.70;2.30;;;;;;;6.47;100.00;100056.63;5021318;28;20034;-62
2024/01/04 09:03:05;;;;;;;3.42;2.45;;;;;;;6.48;100.00;100067.78;5023997;28;20087;-62
2024/01/04 09:05:31;;;;;;;5.43;2.53;;;;;;;6.46;100.00;100060.00;5028046;28;20026;-63
2024/01/04 09:07:56;;;;;;;4.53;2.10;;;;;;;6.45;100.00;100065.97;5027812;28;20025;-62
2024/01/04 09:10:21;;;;;;;5.38;2.17;;;;;;;6.44;100.00;100066.78;5028414;28;20030;-62
2024/01/04 09:12:47;;;;;;;5.90;2.28;;;;;;;6.45;100.00;100071.13;5027201;28;20029;-62
2024/01/04 09:15:13;;;;;;;4.97;2.08;;;;;;;6.54;100.00;100069.69;5027821;28;20548;-62
2024/01/04 09:17:41;;;;;;;4.20;1.67;;;;;;;6.47;100.00;100073.75;5027510;28;20033;-62
2024/01/04 09:20:06;;;;;;;5.20;1.90;;;;;;;6.48;100.00;100073.81;5027701;28;20049;-62
2024/01/04 09:22:32;;;;;;;3.90;1.83;;;;;;;6.48;100.00;100078.06;5030715;28;20548;-62
2024/01/04 09:24:57;;;;;;;4.05;1.90;;;;;;;6.48;100.00;100094.41;5027449;28;20027;-62
2024/01/04 09:27:23;;;;;;;3.08;1.77;;;;;;;6.49;100.00;100092.72;5026455;28;20503;-62
2024/01/04 09:29:49;;;;;;;3.85;1.90;;;;;;;6.49;100.00;100083.25;5027651;28;20035;-63
2024/01/04 09:32:14;;;;;;;2.42;1.58;;;;;;;6.51;100.00;100095.34;5028063;28;20026;-61
2024/01/04 09:34:39;;;;;;;3.03;1.55;;;;;;;6.52;100.00;100094.50;5030876;28;20044;-63
2024/01/04 09:37:05;;;;;;;2.50;1.80;;;;;;;6.51;100.00;100093.66;5030535;28;20030;-62
2024/01/04 09:39:30;;;;;;;3.13;1.30;;;;;;;6.52;100.00;100095.38;5027825;28;20065;-63
2024/01/04 09:41:56;;;;;;;4.32;2.10;;;;;;;6.53;100.00;100106.56;5029873;28;20025;-63
2024/01/04 09:44:21;;;;;;;2.55;1.42;;;;;;;6.53;100.00;100107.44;5028162;28;20020;-62
2024/01/04 09:46:48;;;;;;;4.78;1.65;;;;;;;6.55;100.00;100112.66;5026516;28;20042;-62
2024/01/04 09:49:14;;;;;;;2.92;1.38;;;;;;;6.54;100.00;100116.91;5026951;28;20093;-62
2024/01/04 09:51:41;;;;;;;3.60;1.70;;;;;;;6.55;100.00;100110.94;5026935;28;20583;-62
2024/01/04 09:54:10;;;;;;;1.83;1.20;;;;;;;6.57;100.00;100121.28;5026653;28;20033;-63
2024/01/04 09:56:51;;;;;;;3.05;1.50;;;;;;;6.58;100.00;100125.63;5033111;28;20028;-62
2024/01/04 09:59:17;;;;;;;2.80;1.23;;;;;;;6.59;100.00;100137.66;5027356;28;20032;-62
2024/01/04 10:01:43;;;;;;;3.88;1.50;;;;;;;6.62;100.00;100139.50;5021223;28;20022;-63
2024/01/04 10:04:13;;;;;;;2.28;1.25;;;;;;;6.65;100.00;100139.59;5028723;28;20021;-63
2024/01/04 10:06:43;;;;;;;1.88;1.00;;;;;;;6.63;100.00;100144.69;5032286;28;20029;-63
2024/01/04 10:09:18;;;;;;;3.75;1.70;;;;;;;6.62;100.00;100147.22;5031232;28;20033;-63
2024/01/04 10:11:59;;;;;;;3.45;1.45;;;;;;;6.62;100.00;100153.22;5026469;28;20108;-63
2024/01/04 10:14:25;;;;;;;2.03;1.30;;;;;;;6.59;100.00;100161.72;5021731;28;20430;-63
2024/01/04 10:16:51;;;;;;;3.38;1.30;;;;;;;6.60;100.00;100162.63;5026588;28;20441;-63
2024/01/04 10:19:17;;;;;;;3.67;1.40;;;;;;;6.59;100.00;100164.31;5030646;28;20056;-63
2024/01/04 10:21:42;;;;;;;3.88;1.35;;;;;;;6.59;100.00;100164.31;5026769;28;20049;-63
2024/01/04 10:24:10;;;;;;;4.03;2.45;;;;;;;6.59;100.00;100163.41;5026778;28;20021;-63
2024/01/04 10:26:35;;;;;;;3.72;2.30;;;;;;;6.58;100.00;100159.97;5027917;28;20457;-63
2024/01/04 10:29:01;;;;;;;6.93;2.80;;;;;;;6.59;100.00;100164.31;5030844;28;20016;-63
2024/01/04 10:31:26;;;;;;;6.22;2.80;;;;;;;6.57;100.00;100165.06;5047276;28;20084;-63
2024/01/04 10:34:11;;;;;;;4.55;2.00;;;;;;;6.57;100.00;100167.63;5028914;28;20025;-63
2024/01/04 10:36:40;;;;;;;4.25;2.08;;;;;;;6.57;100.00;100165.94;5024807;28;20143;-63
2024/01/04 10:39:08;;;;;;;3.75;2.03;;;;;;;6.58;100.00;100166.81;5030147;28;20033;-63
2024/01/04 10:41:34;;;;;;;2.17;1.77;;;;;;;6.59;100.00;100168.56;5030745;28;20035;-63
2024/01/04 10:44:06;;;;;;;3.35;2.50;;;;;;;6.60;100.00;100167.78;5024389;28;20025;-63
2024/01/04 10:46:36;;;;;;;3.60;2.10;;;;;;;6.62;100.00;100173.81;5025001;28;20066;-63
2024/01/04 10:49:02;;;;;;;5.13;2.47;;;;;;;6.62;100.00;100172.97;5027558;28;20076;-64
2024/01/04 10:51:30;;;;;;;5.13;1.98;;;;;;;6.60;100.00;100175.50;5028345;28;20381;-63
2024/01/04 10:53:59;;;;;;;4.53;2.15;;;;;;;6.59;100.00;100168.56;5029726;28;20362;-63
2024/01/04 10:56:27;;;;;;;3.03;1.52;;;;;;;6.60;100.00;100171.19;5031295;28;20550;-63
2024/01/04 10:58:55;;;;;;;3.58;1.70;;;;;;;6.62;100.00;100172.97;5026902;28;20022;-63
2024/01/04 11:01:20;;;;;;;2.58;1.58;;;;;;;6.65;100.00;100176.53;5026698;28;20022;-63
2024/01/04 11:03:46;;;;;;;1.40;1.05;;;;;;;6.70;100.00;100172.44;5037949;28;20243;-63
2024/01/04 11:06:14;;;;;;;3.10;1.52;;;;;;;6.71;100.00;100184.47;5026187;28;20057;-64
2024/01/04 11:08:40;;;;;;;2.78;1.05;;;;;;;6.73;100.00;100181.94;5015968;28;20025;-63
2024/01/04 11:11:06;;;;;;;3.42;1.23;;;;;;;6.78;100.00;100179.56;5036049;28;20025;-63
2024/01/04 11:13:31;;;;;;;3.25;1.00;;;;;;;6.79;100.00;100182.19;5026224;28;20044;-63
2024/01/04 11:15:59;;;;;;;2.60;1.25;;;;;;;6.88;100.00;100183.34;5036448;28;20026;-63
2024/01/04 11:18:40;;;;;;;3.15;1.20;;;;;;;6.92;100.00;100183.53;5026340;28;20096;-63
2024/01/04 11:21:27;;;;;;;2.90;0.98;;;;;;;6.97;100.00;100184.56;5035680;28;20021;-63
2024/01/04 11:24:34;;;;;;;0.90;0.80;;;;;;;6.95;100.00;100186.22;5025628;28;20040;-64